createdAt,value
2019-05-18T00:04:33.498Z,26.98
2019-05-18T00:09:29.785Z,28.00
2019-05-18T00:14:36.125Z,27.88
2019-05-18T00:19:42.538Z,26.85
2019-05-18T00:24:49.124Z,27.60
2019-05-18T00:29:55.436Z,25.49
2019-05-18T00:35:01.561Z,26.76
2019-05-18T00:40:07.790Z,27.49
2019-05-18T00:45:13.988Z,27.65
2019-05-18T00:50:20.462Z,26.59
2019-05-18T00:55:26.731Z,28.70
2019-05-18T01:00:32.937Z,27.02
2019-05-18T01:05:39.115Z,28.31
2019-05-18T01:10:45.314Z,27.82
2019-05-18T01:15:51.444Z,28.19
2019-05-18T01:20:57.603Z,29.31
2019-05-18T01:26:03.817Z,29.00
2019-05-18T01:31:09.995Z,29.18
2019-05-18T01:36:16.147Z,28.31
2019-05-18T01:41:22.442Z,29.05
2019-05-18T01:46:28.623Z,27.62
2019-05-18T01:51:34.680Z,27.69
2019-05-18T01:56:40.876Z,29.11
2019-05-18T02:01:47.036Z,28.78
2019-05-18T02:06:53.377Z,28.56
2019-05-18T02:11:59.716Z,27.61
2019-05-18T02:17:05.931Z,28.18
2019-05-18T02:22:12.454Z,26.43
2019-05-18T02:27:18.838Z,27.79
2019-05-18T02:32:25.126Z,27.31
2019-05-18T02:37:31.435Z,27.35
2019-05-18T02:42:37.778Z,28.58
2019-05-18T02:47:44.006Z,26.80
2019-05-18T02:52:50.177Z,26.16
2019-05-18T02:57:56.830Z,28.24
2019-05-18T03:03:03.270Z,27.39
2019-05-18T03:08:09.498Z,27.84
2019-05-18T03:13:15.921Z,26.34
2019-05-18T03:18:22.478Z,29.00
2019-05-18T03:23:28.574Z,28.63
2019-05-18T03:28:34.832Z,28.46
2019-05-18T03:33:41.061Z,27.73
2019-05-18T03:38:47.236Z,29.78
2019-05-18T03:43:53.453Z,29.42
2019-05-18T03:48:59.660Z,28.48
2019-05-18T03:54:05.893Z,28.50
2019-05-18T03:59:12.303Z,28.35
2019-05-18T04:04:18.796Z,29.86
2019-05-18T04:09:24.980Z,29.50
2019-05-18T04:14:31.393Z,27.56
2019-05-18T04:19:46.554Z,27.92
2019-05-18T04:24:43.857Z,29.00
2019-05-18T04:29:50.084Z,27.88
2019-05-18T04:34:56.685Z,28.69
2019-05-18T04:40:03.159Z,28.81
2019-05-18T04:45:09.357Z,26.98
2019-05-18T04:50:15.941Z,27.24
2019-05-18T04:55:22.125Z,28.53
2019-05-18T05:00:29.171Z,27.98
2019-05-18T05:05:35.929Z,25.91
2019-05-18T05:10:42.109Z,27.72
2019-05-18T05:15:48.361Z,26.16
2019-05-18T05:20:54.624Z,25.78
2019-05-18T05:26:00.752Z,25.28
2019-05-18T05:31:07.876Z,25.56
2019-05-18T05:36:14.091Z,25.03
2019-05-18T05:41:20.553Z,24.97
2019-05-18T05:46:26.885Z,24.65
2019-05-18T05:51:33.579Z,24.45
2019-05-18T05:56:40.148Z,25.91
2019-05-18T06:01:47.445Z,24.09
2019-05-18T06:06:54.191Z,24.68
2019-05-18T06:12:01.449Z,23.97
2019-05-18T06:17:08.856Z,24.50
2019-05-18T06:22:15.383Z,23.61
2019-05-18T06:27:21.740Z,21.73
2019-05-18T06:32:28.997Z,21.74
2019-05-18T06:37:35.994Z,21.29
2019-05-18T06:42:42.441Z,20.58
2019-05-18T06:47:48.826Z,21.99
2019-05-18T06:52:55.247Z,21.82
2019-05-18T07:18:29.841Z,21.76
2019-05-18T07:23:36.468Z,20.79
2019-05-18T07:28:42.872Z,21.01
2019-05-18T07:33:49.435Z,19.67
2019-05-18T07:49:09.667Z,19.90
2019-05-18T08:09:35.401Z,19.26
2019-05-18T08:14:41.889Z,17.54
2019-05-18T08:30:02.918Z,16.11
2019-05-18T08:35:09.260Z,15.25
2019-05-18T08:40:15.643Z,14.92
2019-05-18T08:45:21.864Z,13.58
2019-05-18T08:50:28.428Z,14.05
2019-05-18T08:55:35.112Z,13.86
2019-05-18T09:00:41.614Z,13.69
2019-05-18T09:05:48.087Z,11.99
2019-05-18T09:10:54.777Z,12.64
2019-05-18T09:16:00.918Z,12.26
2019-05-18T09:21:07.329Z,12.26
2019-05-18T09:26:13.484Z,12.98
2019-05-18T09:31:20.135Z,12.09
2019-05-18T09:36:26.441Z,11.62
2019-05-18T09:41:32.775Z,12.41
2019-05-18T09:46:39.296Z,11.04
2019-05-18T09:51:46.384Z,11.76
2019-05-18T09:56:52.543Z,11.39
2019-05-18T10:01:58.861Z,12.77
2019-05-18T10:07:05.220Z,10.13
2019-05-18T10:12:11.465Z,11.03
2019-05-18T10:17:17.667Z,11.77
2019-05-18T10:22:24.124Z,10.10
2019-05-18T10:27:30.355Z,11.50
2019-05-18T10:32:36.611Z,11.55
2019-05-18T10:37:43.205Z,11.18
2019-05-18T10:42:49.684Z,10.71
2019-05-18T10:47:55.943Z,11.28
2019-05-18T10:53:02.294Z,11.32
2019-05-18T10:58:08.885Z,11.55
2019-05-18T11:03:15.320Z,10.34
2019-05-18T11:08:21.730Z,9.85
2019-05-18T11:13:28.387Z,11.40
2019-05-18T11:18:34.919Z,10.95
2019-05-18T11:23:43.700Z,10.25
2019-05-18T11:28:41.568Z,11.06
2019-05-18T11:33:48.406Z,10.02
2019-05-18T11:38:54.918Z,9.69
2019-05-18T11:44:01.992Z,9.03
2019-05-18T11:49:08.638Z,9.47
2019-05-18T11:54:15.024Z,9.07
2019-05-18T11:59:29.320Z,12.10
2019-05-18T12:04:25.873Z,9.51
2019-05-18T12:09:32.405Z,9.57
2019-05-18T12:14:38.556Z,8.98
2019-05-18T12:19:44.943Z,8.87
2019-05-18T12:24:51.117Z,9.64
2019-05-18T12:30:01.148Z,9.21
2019-05-18T12:34:57.454Z,9.31
2019-05-18T12:45:10.390Z,8.94
2019-05-18T12:50:16.748Z,9.82
2019-05-18T13:10:44.684Z,7.27
2019-05-18T13:15:51.120Z,6.35
2019-05-18T13:20:57.970Z,6.34
2019-05-18T13:26:04.349Z,7.23
2019-05-18T13:31:10.766Z,6.57
2019-05-18T13:36:16.835Z,5.94
2019-05-18T13:41:22.987Z,6.23
2019-05-18T13:46:29.408Z,5.48
2019-05-18T13:51:35.620Z,5.55
2019-05-18T13:56:41.852Z,6.07
2019-05-18T14:01:48.033Z,5.83
2019-05-18T14:06:54.416Z,5.54
2019-05-18T14:12:00.680Z,6.76
2019-05-18T14:22:13.179Z,5.66
2019-05-18T14:27:19.655Z,6.55
2019-05-18T14:32:26.294Z,5.12
2019-05-18T14:47:45.875Z,5.82
2019-05-18T14:52:52.773Z,5.15
2019-05-18T14:57:59.022Z,5.13
2019-05-18T15:13:18.431Z,5.19
2019-05-18T15:18:24.790Z,5.24
2019-05-18T15:23:31.011Z,4.98
2019-05-18T15:28:37.228Z,4.61
2019-05-18T15:33:43.521Z,5.28
2019-05-18T15:38:50.268Z,4.93
2019-05-18T15:49:03.741Z,4.84
2019-05-18T15:59:16.953Z,11.93
2019-05-18T16:40:08.888Z,14.87
2019-05-18T16:50:21.621Z,15.34
2019-05-18T16:55:28.121Z,16.58
2019-05-18T17:00:34.412Z,15.60
2019-05-18T17:10:47.123Z,14.61
2019-05-18T17:15:53.768Z,15.39
2019-05-18T17:21:01.468Z,14.42
2019-05-18T17:26:07.892Z,14.66
2019-05-18T17:41:29.349Z,13.10
2019-05-18T17:46:37.078Z,13.02
2019-05-18T17:51:43.495Z,14.83
2019-05-18T17:56:50.033Z,14.10
2019-05-18T18:01:56.413Z,17.31
2019-05-18T18:07:02.817Z,15.80
2019-05-18T18:12:09.045Z,22.45
2019-05-18T18:17:17.688Z,15.84
2019-05-18T18:22:24.321Z,15.65
2019-05-18T18:27:30.670Z,15.49
2019-05-18T18:32:37.108Z,16.63
2019-05-18T18:37:43.641Z,18.06
2019-05-18T18:42:49.896Z,19.59
2019-05-18T18:47:56.772Z,23.28
2019-05-18T18:53:03.036Z,20.35
2019-05-18T18:58:09.608Z,27.25
2019-05-18T19:03:16.128Z,28.34
2019-05-18T19:08:22.279Z,22.62
2019-05-18T19:13:28.672Z,23.70
2019-05-18T19:18:35.416Z,20.87
2019-05-18T19:23:41.848Z,21.74
2019-05-18T19:28:48.477Z,25.22
2019-05-18T19:33:54.847Z,25.86
2019-05-18T19:39:01.150Z,25.02
2019-05-18T19:44:07.449Z,22.90
2019-05-18T19:49:13.915Z,22.26
2019-05-18T19:54:20.109Z,21.53
2019-05-18T19:59:26.537Z,21.18
2019-05-18T20:04:32.977Z,21.91
2019-05-18T20:09:39.589Z,21.07
2019-05-18T20:14:46.012Z,24.07
2019-05-18T20:19:52.347Z,23.34
2019-05-18T20:24:59.060Z,22.53
2019-05-18T20:30:05.474Z,20.81
2019-05-18T20:35:11.728Z,22.38
2019-05-18T20:40:17.980Z,22.84
2019-05-18T20:45:24.220Z,22.97
2019-05-18T20:50:30.558Z,22.57
2019-05-18T20:55:36.863Z,23.71
2019-05-18T21:00:43.207Z,23.27
2019-05-18T21:05:49.545Z,22.18
2019-05-18T21:10:55.880Z,23.85
2019-05-18T21:16:02.043Z,23.35
2019-05-18T21:21:08.509Z,24.22
2019-05-18T21:26:14.743Z,24.31
2019-05-18T21:31:20.876Z,24.40
2019-05-18T21:36:28.829Z,24.08
2019-05-18T21:41:35.090Z,23.54
2019-05-18T21:46:41.439Z,25.22
2019-05-18T21:51:48.071Z,23.86
2019-05-18T21:56:54.333Z,24.32
2019-05-18T22:02:00.705Z,24.86
2019-05-18T22:07:07.191Z,25.99
2019-05-18T22:12:13.636Z,25.94
2019-05-18T22:17:19.908Z,25.70
2019-05-18T22:22:26.208Z,26.46
2019-05-18T22:27:32.448Z,26.72
2019-05-18T22:32:39.283Z,27.39
2019-05-18T22:37:45.406Z,27.59
2019-05-18T22:42:51.932Z,27.96
2019-05-18T22:47:58.155Z,28.56
2019-05-18T22:53:04.693Z,26.33
2019-05-18T22:58:11.300Z,28.37
2019-05-18T23:03:17.607Z,27.94
2019-05-18T23:08:24.116Z,27.68
2019-05-18T23:13:30.688Z,28.16
2019-05-18T23:18:37.251Z,28.11
2019-05-18T23:23:43.648Z,29.13
2019-05-18T23:28:50.046Z,29.91
2019-05-18T23:33:56.516Z,29.64
2019-05-18T23:39:02.985Z,31.29
2019-05-18T23:44:09.236Z,30.35
2019-05-18T23:49:15.457Z,31.19
2019-05-18T23:54:21.947Z,33.19
2019-05-18T23:59:28.359Z,33.06
